Time;durP1;ratioP1;P1;durP2;ratioP2;P2;SDS_P1;SDS_P2;PMS_P1;PMS_P2;Temp;Humidity;BMP_temperature;BMP_pressure;BME280_temperature;BME280_humidity;BME280_pressure;Samples;Min_cycle;Max_cycle;Signal;HPM_P1;HPM_P2
2021/08/18 00:04:42;;;;;;;5.78;3.80;;;;;;;14.99;65.03;99907.84;10402720;28;20045;-65
2021/08/18 00:09:44;;;;;;;6.03;3.55;;;;;;;14.84;65.02;99914.28;10425386;28;20569;-64
2021/08/18 00:14:46;;;;;;;9.70;3.78;;;;;;;14.79;65.48;99918.25;10403290;28;20133;-65
2021/08/18 00:19:49;;;;;;;5.10;3.42;;;;;;;14.77;65.03;99913.09;10402536;28;20077;-64
2021/08/18 00:24:51;;;;;;;6.03;3.47;;;;;;;14.81;65.40;99916.31;10418232;28;20132;-64
2021/08/18 00:29:52;;;;;;;8.52;3.08;;;;;;;14.77;65.64;99918.38;10430178;28;20481;-64
2021/08/18 00:34:54;;;;;;;6.07;3.25;;;;;;;14.72;65.67;99914.41;10441742;28;20401;-65
2021/08/18 00:39:56;;;;;;;5.70;3.22;;;;;;;14.72;65.73;99911.75;10443564;28;20544;-64
2021/08/18 00:44:58;;;;;;;4.40;2.67;;;;;;;14.77;66.00;99907.00;10444403;28;20132;-64
2021/08/18 00:50:00;;;;;;;6.50;3.22;;;;;;;14.80;65.62;99904.13;10416846;28;20133;-64
2021/08/18 00:55:02;;;;;;;6.47;2.88;;;;;;;14.83;65.65;99906.50;10403463;28;20080;-64
2021/08/18 01:00:09;;;;;;;6.22;3.10;;;;;;;14.79;65.80;99903.28;10435044;28;20084;-64
2021/08/18 01:05:14;;;;;;;6.70;3.15;;;;;;;14.83;65.76;99902.09;10450628;28;20127;-64
2021/08/18 01:10:24;;;;;;;5.60;2.90;;;;;;;14.83;65.96;99888.09;10450599;28;20136;-64
2021/08/18 01:15:28;;;;;;;6.43;2.83;;;;;;;14.90;65.42;99889.31;10451847;28;20091;-64
2021/08/18 01:20:37;;;;;;;6.45;2.80;;;;;;;14.93;65.70;99891.69;10419944;28;20042;-64
2021/08/18 01:25:40;;;;;;;6.00;2.60;;;;;;;14.91;65.48;99891.81;10410085;28;20121;-64
2021/08/18 01:30:42;;;;;;;4.05;2.25;;;;;;;14.98;65.31;99894.81;10441708;28;20057;-64
2021/08/18 01:35:47;;;;;;;5.85;2.45;;;;;;;15.01;65.33;99894.53;10450632;28;20428;-64
2021/08/18 01:40:51;;;;;;;5.25;2.88;;;;;;;15.04;65.09;99894.31;10447494;28;20493;-64
2021/08/18 01:45:53;;;;;;;5.38;2.13;;;;;;;15.07;65.27;99900.19;10450363;28;20076;-64
2021/08/18 01:50:56;;;;;;;3.90;2.25;;;;;;;15.11;64.93;99906.03;10417497;28;20708;-64
2021/08/18 01:56:06;;;;;;;4.75;2.20;;;;;;;15.12;64.69;99905.09;10408910;28;20084;-64
2021/08/18 02:01:13;;;;;;;3.33;2.00;;;;;;;15.08;64.69;99903.66;10443850;28;20508;-64
2021/08/18 02:06:16;;;;;;;4.20;2.00;;;;;;;15.05;64.85;99896.81;10456971;28;20053;-64
2021/08/18 02:11:18;;;;;;;3.22;2.03;;;;;;;15.10;64.80;99899.91;10455499;28;20102;-64
2021/08/18 02:16:20;;;;;;;4.18;2.00;;;;;;;15.06;64.88;99898.47;10457038;28;20045;-64
2021/08/18 02:21:21;;;;;;;4.28;2.00;;;;;;;15.04;65.09;99899.59;10455279;28;20488;-64
2021/08/18 02:26:23;;;;;;;3.55;1.88;;;;;;;15.07;65.06;99894.91;10456669;28;20120;-64
2021/08/18 02:31:27;;;;;;;6.03;2.08;;;;;;;15.02;65.01;99890.97;10420617;28;20141;-64
2021/08/18 02:36:29;;;;;;;3.20;1.90;;;;;;;15.01;64.90;99890.13;10414981;28;20137;-64
2021/08/18 02:41:31;;;;;;;4.95;1.98;;;;;;;14.96;65.36;99892.25;10449820;28;20567;-64
2021/08/18 02:46:33;;;;;;;5.50;2.20;;;;;;;14.94;65.48;99893.38;10456105;28;20049;-64
2021/08/18 02:51:35;;;;;;;3.50;1.90;;;;;;;14.99;65.47;99896.47;10419237;28;20095;-64
2021/08/18 02:56:36;;;;;;;4.18;1.98;;;;;;;14.98;65.36;99885.09;10414518;28;20077;-64
2021/08/18 03:01:38;;;;;;;6.63;2.05;;;;;;;14.98;65.73;99879.81;10448201;28;20088;-64
2021/08/18 03:06:41;;;;;;;5.55;2.08;;;;;;;14.84;66.31;99884.50;10448236;28;20064;-65
2021/08/18 03:11:42;;;;;;;6.22;1.80;;;;;;;14.82;65.98;99894.31;10421706;28;20080;-65
2021/08/18 03:16:44;;;;;;;5.03;1.90;;;;;;;14.77;66.21;99894.69;10406255;28;20041;-65
2021/08/18 03:21:46;;;;;;;5.47;2.20;;;;;;;14.62;66.64;99895.84;10441369;28;20148;-65
2021/08/18 03:26:48;;;;;;;4.85;2.13;;;;;;;14.54;67.15;99899.06;10447405;28;20516;-65
2021/08/18 03:31:49;;;;;;;3.70;2.05;;;;;;;14.57;67.15;99883.03;10409443;28;20180;-64
2021/08/18 03:36:51;;;;;;;5.45;2.03;;;;;;;14.66;67.05;99893.81;10405845;28;20128;-64
2021/08/18 03:41:53;;;;;;;4.07;1.90;;;;;;;14.73;67.04;99884.50;10430420;28;20112;-64
2021/08/18 03:46:55;;;;;;;6.68;2.00;;;;;;;14.71;67.11;99895.16;10405717;28;20080;-64
2021/08/18 03:51:56;;;;;;;5.32;2.17;;;;;;;14.74;66.93;99891.41;10416951;28;20073;-64
2021/08/18 03:56:58;;;;;;;4.45;2.10;;;;;;;14.77;67.04;99888.56;10404002;28;21026;-64
2021/08/18 04:02:00;;;;;;;3.55;1.90;;;;;;;14.84;66.78;99892.41;10442447;28;20488;-64
2021/08/18 04:07:02;;;;;;;5.35;1.80;;;;;;;14.89;66.39;99898.13;10445853;28;20405;-64
2021/08/18 04:12:04;;;;;;;2.72;1.52;;;;;;;14.90;66.67;99891.94;10445605;28;20136;-64
2021/08/18 04:17:06;;;;;;;3.67;1.90;;;;;;;14.95;66.70;99900.28;10446057;28;20077;-65
2021/08/18 04:22:08;;;;;;;5.50;1.88;;;;;;;14.95;66.44;99897.66;10405390;28;20478;-65
2021/08/18 04:27:09;;;;;;;3.92;2.00;;;;;;;14.84;66.84;99898.50;10404846;28;20073;-64
2021/08/18 04:32:11;;;;;;;4.68;1.67;;;;;;;14.86;67.06;99901.03;10445364;28;20457;-65
2021/08/18 04:37:13;;;;;;;4.28;1.73;;;;;;;14.80;67.01;99901.50;10452216;28;20125;-64
2021/08/18 04:42:15;;;;;;;4.45;1.70;;;;;;;14.82;67.26;99903.03;10453911;28;20144;-64
2021/08/18 04:47:16;;;;;;;3.05;1.67;;;;;;;14.85;67.08;99905.44;10451733;28;20091;-64
2021/08/18 04:52:18;;;;;;;4.38;1.58;;;;;;;14.95;67.06;99908.19;10427485;28;20129;-65
2021/08/18 04:57:20;;;;;;;4.97;2.00;;;;;;;14.90;67.42;99908.53;10429529;28;20132;-64
2021/08/18 05:02:21;;;;;;;4.78;1.63;;;;;;;14.97;67.44;99901.84;10452116;28;20091;-65
2021/08/18 05:07:24;;;;;;;3.05;1.80;;;;;;;15.00;67.27;99903.41;10451580;28;20049;-65
2021/08/18 05:12:25;;;;;;;3.25;1.80;;;;;;;15.12;66.99;99892.72;10450570;28;20076;-64
2021/08/18 05:17:27;;;;;;;4.72;1.98;;;;;;;15.15;66.96;99886.38;10452471;28;20073;-64
2021/08/18 05:22:29;;;;;;;4.10;1.95;;;;;;;15.19;66.85;99887.81;10427401;28;20136;-64
2021/08/18 05:27:30;;;;;;;4.40;2.05;;;;;;;15.32;66.55;99897.28;10410881;28;20050;-65
2021/08/18 05:32:32;;;;;;;5.05;1.98;;;;;;;15.36;66.87;99904.00;10433443;28;20136;-65
2021/08/18 05:37:34;;;;;;;4.43;1.90;;;;;;;15.48;66.42;99910.06;10451516;28;20056;-64
2021/08/18 05:42:36;;;;;;;5.70;2.10;;;;;;;15.54;66.41;99909.59;10427740;28;20153;-65
2021/08/18 05:47:38;;;;;;;3.90;2.05;;;;;;;15.57;66.37;99916.44;10409251;28;20051;-64
2021/08/18 05:52:39;;;;;;;4.35;1.80;;;;;;;15.77;65.83;99919.13;10433111;28;20099;-64
2021/08/18 05:57:41;;;;;;;4.90;1.83;;;;;;;15.82;65.51;99914.31;10450673;28;20513;-65
2021/08/18 06:02:43;;;;;;;3.40;1.80;;;;;;;15.85;65.69;99921.13;10447028;28;20080;-64
2021/08/18 06:07:45;;;;;;;6.00;1.88;;;;;;;15.91;65.34;99925.91;10442509;28;20398;-64
2021/08/18 06:12:46;;;;;;;4.00;1.80;;;;;;;16.00;65.59;99933.06;10427641;28;20641;-64
2021/08/18 06:17:48;;;;;;;2.75;1.80;;;;;;;16.28;65.34;99931.63;10466671;28;20436;-65
2021/08/18 06:22:50;;;;;;;4.43;1.77;;;;;;;16.88;64.42;99921.19;10459195;28;20565;-63
2021/08/18 06:27:53;;;;;;;3.92;1.70;;;;;;;17.20;63.30;99921.88;10465694;28;20045;-64
2021/08/18 06:32:55;;;;;;;6.82;2.05;;;;;;;17.04;63.54;99918.91;10440546;28;20669;-65
2021/08/18 06:37:56;;;;;;;4.10;1.92;;;;;;;16.91;63.89;99913.03;10423249;28;20139;-64
2021/08/18 06:42:58;;;;;;;4.25;1.85;;;;;;;16.90;63.71;99920.09;10446227;28;20080;-64
2021/08/18 06:48:00;;;;;;;6.03;1.70;;;;;;;16.90;63.72;99930.66;10440390;28;20127;-64
2021/08/18 06:53:02;;;;;;;3.55;1.73;;;;;;;16.85;64.28;99924.94;10434299;28;20466;-64
2021/08/18 06:58:04;;;;;;;3.60;1.80;;;;;;;16.75;64.40;99931.16;10463568;28;20143;-65
2021/08/18 07:03:05;;;;;;;3.22;1.70;;;;;;;16.61;64.99;99934.13;10437068;28;20136;-64
2021/08/18 07:08:07;;;;;;;5.63;1.80;;;;;;;16.99;64.01;99931.69;10426041;28;20060;-65
2021/08/18 07:13:09;;;;;;;3.60;1.42;;;;;;;17.04;64.00;99932.13;10464703;28;20087;-64
2021/08/18 07:18:11;;;;;;;3.88;1.75;;;;;;;17.39;63.60;99937.84;10434160;28;20048;-64
2021/08/18 07:23:12;;;;;;;4.38;1.60;;;;;;;17.89;62.59;99936.03;10478900;28;20136;-65
2021/08/18 07:28:15;;;;;;;3.33;1.50;;;;;;;18.43;60.81;99940.78;10447205;28;20075;-64
2021/08/18 07:33:17;;;;;;;3.22;1.38;;;;;;;18.26;60.68;99937.00;10445587;28;20076;-64
2021/08/18 07:38:18;;;;;;;1.90;1.20;;;;;;;18.26;60.90;99949.44;10431736;28;20139;-64
2021/08/18 07:43:20;;;;;;;2.65;1.30;;;;;;;18.08;61.10;99945.75;10469617;28;20111;-63
2021/08/18 07:48:22;;;;;;;1.10;1.00;;;;;;;17.99;61.26;99942.16;10412243;28;20060;-64
2021/08/18 07:53:25;;;;;;;2.53;1.10;;;;;;;18.13;61.23;99940.91;10419622;28;20132;-64
2021/08/18 07:58:27;;;;;;;1.98;1.10;;;;;;;18.25;60.91;99931.88;10420836;28;20532;-65
2021/08/18 08:03:29;;;;;;;3.33;1.10;;;;;;;18.81;59.70;99929.28;10441273;28;20355;-64
2021/08/18 08:08:32;;;;;;;1.30;1.00;;;;;;;19.38;58.74;99924.59;10433638;28;20485;-65
2021/08/18 08:13:34;;;;;;;1.98;1.00;;;;;;;20.11;57.21;99922.75;10437931;28;20080;-64
2021/08/18 08:18:35;;;;;;;3.25;1.10;;;;;;;20.32;56.18;99930.38;10424553;28;20476;-64
2021/08/18 08:23:37;;;;;;;2.70;1.08;;;;;;;20.78;54.76;99930.94;10434083;28;20137;-63
2021/08/18 08:28:39;;;;;;;1.45;1.00;;;;;;;20.83;54.66;99931.28;10433565;28;20041;-61
2021/08/18 08:33:41;;;;;;;2.00;1.00;;;;;;;20.63;54.67;99935.16;10445066;28;20091;-61
2021/08/18 08:38:43;;;;;;;1.75;1.23;;;;;;;20.41;55.01;99930.31;10408006;28;20050;-61
2021/08/18 08:43:45;;;;;;;2.38;1.30;;;;;;;20.42;54.97;99925.84;10403975;28;20129;-61
2021/08/18 08:48:47;;;;;;;3.50;1.10;;;;;;;20.85;53.88;99934.63;10403557;28;20449;-61
2021/08/18 08:53:49;;;;;;;2.22;1.10;;;;;;;21.04;53.96;99930.91;10404044;28;20045;-61
2021/08/18 08:58:51;;;;;;;2.72;1.08;;;;;;;21.75;52.11;99932.22;10404506;28;20445;-62
2021/08/18 09:03:53;;;;;;;2.53;1.17;;;;;;;21.66;51.90;99935.84;10418817;28;20514;-61
2021/08/18 09:08:55;;;;;;;1.85;1.10;;;;;;;21.44;52.49;99933.78;10429599;28;20061;-61
2021/08/18 09:13:57;;;;;;;2.67;1.10;;;;;;;20.90;53.62;99942.97;10443578;28;20088;-61
2021/08/18 09:18:58;;;;;;;2.38;1.15;;;;;;;20.45;54.38;99944.94;10443176;28;20041;-61
2021/08/18 09:24:15;;;;;;;2.15;1.05;;;;;;;20.59;54.40;99933.78;10438134;28;20473;-61
2021/08/18 09:29:31;;;;;;;1.88;1.17;;;;;;;20.74;53.88;99936.72;10410755;28;20136;-61
2021/08/18 09:34:33;;;;;;;2.15;1.13;;;;;;;20.63;54.22;99942.28;10430693;28;20081;-60
2021/08/18 09:39:35;;;;;;;1.92;1.10;;;;;;;20.83;53.19;99936.59;10450421;28;20045;-61
2021/08/18 09:44:37;;;;;;;3.92;1.10;;;;;;;21.56;52.07;99924.50;10450653;28;20147;-61
2021/08/18 09:49:38;;;;;;;1.15;0.95;;;;;;;22.64;49.58;99929.63;10449476;28;20068;-61
2021/08/18 09:54:40;;;;;;;2.17;1.25;;;;;;;22.94;49.07;99925.44;10449605;28;20128;-61
2021/08/18 09:59:45;;;;;;;2.03;1.10;;;;;;;23.31;47.45;99920.31;10450450;28;20116;-61
2021/08/18 10:04:47;;;;;;;1.73;1.10;;;;;;;23.20;47.95;99920.69;10450094;28;20049;-61
2021/08/18 10:09:49;;;;;;;2.15;1.20;;;;;;;23.15;47.66;99907.03;10430668;28;20165;-61
2021/08/18 10:14:51;;;;;;;1.10;1.00;;;;;;;22.91;48.22;99907.94;10409634;28;20450;-61
2021/08/18 10:19:53;;;;;;;1.92;1.20;;;;;;;22.93;48.18;99913.09;10408127;28;20128;-61
2021/08/18 10:24:55;;;;;;;3.45;1.58;;;;;;;22.48;48.08;99901.16;10408712;28;20115;-61
2021/08/18 10:30:23;;;;;;;1.48;1.38;;;;;;;22.46;48.25;99911.16;10421162;28;20143;-61
2021/08/18 10:35:34;;;;;;;2.75;1.50;;;;;;;22.27;48.20;99911.50;10448476;28;20102;-61
2021/08/18 10:40:36;;;;;;;6.72;1.70;;;;;;;21.95;49.23;99913.28;10449122;28;20051;-61
2021/08/18 10:45:37;;;;;;;3.10;1.70;;;;;;;21.94;49.22;99916.94;10448714;28;20486;-61
2021/08/18 10:50:41;;;;;;;3.22;1.60;;;;;;;21.81;49.02;99914.75;10446327;28;20501;-61
2021/08/18 10:55:43;;;;;;;2.30;1.30;;;;;;;21.80;49.50;99915.78;10428062;28;20053;-61
2021/08/18 11:00:45;;;;;;;2.92;1.50;;;;;;;21.92;49.40;99908.28;10407025;28;20057;-61
2021/08/18 11:05:52;;;;;;;2.47;1.60;;;;;;;22.19;49.33;99911.50;10406501;28;20049;-62
2021/08/18 11:10:53;;;;;;;2.60;1.80;;;;;;;22.17;48.82;99899.38;10448229;28;20049;-61
2021/08/18 11:15:55;;;;;;;4.35;1.80;;;;;;;21.99;49.86;99901.28;10445599;28;20049;-61
2021/08/18 11:20:57;;;;;;;3.15;1.80;;;;;;;21.76;49.89;99901.94;10416378;28;20067;-61
2021/08/18 11:26:02;;;;;;;2.85;1.75;;;;;;;21.72;49.90;99899.78;10405706;28;20076;-61
2021/08/18 11:31:06;;;;;;;5.15;1.90;;;;;;;22.05;49.19;99893.50;10405635;28;20546;-61
2021/08/18 11:36:15;;;;;;;3.70;2.08;;;;;;;22.37;47.95;99898.84;10405809;28;20059;-61
2021/08/18 11:41:17;;;;;;;3.55;2.00;;;;;;;22.45;48.24;99884.69;10406973;28;20484;-61
2021/08/18 11:46:25;;;;;;;3.83;1.95;;;;;;;23.23;46.86;99885.66;10404912;28;20056;-60
2021/08/18 11:51:26;;;;;;;3.17;1.88;;;;;;;23.77;45.15;99887.41;10405438;28;20057;-61
2021/08/18 11:56:30;;;;;;;3.10;1.90;;;;;;;23.58;44.72;99890.50;10405818;28;20125;-61
2021/08/18 12:01:34;;;;;;;2.85;1.90;;;;;;;23.32;45.69;99873.94;10404555;28;20077;-61
2021/08/18 12:06:37;;;;;;;3.53;2.28;;;;;;;23.22;45.38;99868.81;10411778;28;20061;-61
2021/08/18 12:11:40;;;;;;;2.97;1.90;;;;;;;23.46;45.09;99862.56;10405891;28;20133;-60
2021/08/18 12:16:43;;;;;;;2.75;1.80;;;;;;;23.23;44.50;99854.47;10404352;28;20172;-60
2021/08/18 12:22:00;;;;;;;3.40;2.00;;;;;;;22.82;44.31;99847.63;10403840;28;20049;-60
2021/08/18 12:27:05;;;;;;;2.70;1.80;;;;;;;23.20;43.86;99852.16;10404379;28;20156;-60
2021/08/18 12:32:10;;;;;;;3.90;1.73;;;;;;;23.30;43.46;99850.09;10404140;28;20121;-60
2021/08/18 12:37:19;;;;;;;2.67;1.70;;;;;;;23.41;42.76;99843.59;10405021;28;20594;-60
2021/08/18 12:42:21;;;;;;;;;;;;;;;23.49;43.40;99838.19;10404815;28;20149;-60
2021/08/18 12:47:36;;;;;;;2.42;1.60;;;;;;;23.87;40.92;99831.91;10403838;28;20007;-61
2021/08/18 12:52:38;;;;;;;2.45;1.42;;;;;;;24.18;41.55;99827.31;10405473;28;20069;-61
2021/08/18 12:57:41;;;;;;;2.33;1.50;;;;;;;24.51;40.63;99819.00;10427322;28;20136;-61
2021/08/18 13:02:43;;;;;;;5.93;1.50;;;;;;;24.45;41.12;99819.72;10412009;28;20088;-61
2021/08/18 13:07:45;;;;;;;2.72;1.50;;;;;;;24.33;41.05;99813.97;10427593;28;20049;-60
2021/08/18 13:12:47;;;;;;;3.00;1.80;;;;;;;24.00;41.27;99810.75;10451345;28;20072;-61
2021/08/18 13:17:49;;;;;;;2.30;1.75;;;;;;;23.46;41.45;99827.84;10452024;28;20045;-60
2021/08/18 13:22:50;;;;;;;2.92;1.80;;;;;;;22.88;43.12;99817.59;10452084;28;20080;-61
2021/08/18 13:27:53;;;;;;;2.53;1.70;;;;;;;22.28;44.27;99819.91;10450365;28;20083;-60
2021/08/18 13:32:54;;;;;;;3.50;1.80;;;;;;;22.30;44.99;99823.25;10452385;28;20049;-61
2021/08/18 13:37:57;;;;;;;3.17;1.80;;;;;;;22.18;45.34;99824.59;10449416;28;20090;-61
2021/08/18 13:42:59;;;;;;;2.78;1.70;;;;;;;22.52;44.88;99811.88;10438487;28;20137;-60
2021/08/18 13:48:00;;;;;;;2.33;1.60;;;;;;;22.64;44.83;99810.50;10425728;28;20076;-61
2021/08/18 13:53:02;;;;;;;3.17;1.80;;;;;;;22.95;44.05;99812.41;10410230;28;20164;-60
2021/08/18 13:58:04;;;;;;;2.88;1.65;;;;;;;23.02;44.29;99808.91;10409398;28;20123;-61
2021/08/18 14:03:06;;;;;;;2.65;1.52;;;;;;;23.05;43.40;99799.69;10409396;28;20469;-60
2021/08/18 14:08:11;;;;;;;4.47;1.70;;;;;;;22.90;43.71;99804.13;10414595;28;20414;-60
2021/08/18 14:13:13;;;;;;;2.80;1.50;;;;;;;22.50;44.37;99810.38;10408496;28;20089;-61
2021/08/18 14:18:17;;;;;;;4.57;1.63;;;;;;;22.30;44.81;99815.25;10409204;28;20077;-60
2021/08/18 14:23:20;;;;;;;3.97;1.50;;;;;;;22.15;44.51;99822.25;10408428;28;20084;-59
2021/08/18 14:28:22;;;;;;;2.92;1.60;;;;;;;21.97;45.38;99821.56;10407956;28;20144;-59
2021/08/18 14:33:23;;;;;;;1.85;1.48;;;;;;;21.68;45.91;99823.91;10408040;28;20103;-60
2021/08/18 14:38:25;;;;;;;2.72;1.55;;;;;;;21.06;47.03;99830.53;10409445;28;20073;-59
2021/08/18 14:43:27;;;;;;;3.22;1.35;;;;;;;20.85;47.21;99838.94;10407057;28;20133;-60
2021/08/18 14:48:29;;;;;;;4.88;1.40;;;;;;;20.66;47.79;99839.16;10407558;28;20074;-62
2021/08/18 14:53:31;;;;;;;1.85;1.20;;;;;;;20.57;47.96;99837.41;10407218;28;20123;-60
2021/08/18 14:58:33;;;;;;;2.05;1.33;;;;;;;20.66;48.18;99839.16;10406616;28;20132;-60
2021/08/18 15:03:38;;;;;;;3.15;1.45;;;;;;;20.86;47.78;99824.66;10407044;28;20137;-60
2021/08/18 15:08:40;;;;;;;2.13;1.20;;;;;;;21.12;47.68;99818.41;10431567;28;20115;-60
2021/08/18 15:13:42;;;;;;;1.65;1.30;;;;;;;21.36;47.39;99813.19;10446293;28;20076;-59
2021/08/18 15:18:44;;;;;;;1.90;1.23;;;;;;;21.48;46.97;99811.88;10446600;28;20059;-59
2021/08/18 15:23:45;;;;;;;1.75;1.23;;;;;;;21.73;46.50;99805.59;10446847;28;20096;-59
2021/08/18 15:28:47;;;;;;;2.40;1.30;;;;;;;21.99;46.37;99802.75;10447620;28;20080;-59
2021/08/18 15:33:49;;;;;;;1.85;1.25;;;;;;;22.23;46.07;99794.78;10446849;28;20085;-59
2021/08/18 15:38:50;;;;;;;2.40;1.23;;;;;;;22.04;45.97;99795.16;10417844;28;20481;-60
2021/08/18 15:43:52;;;;;;;2.00;1.30;;;;;;;21.81;46.43;99793.13;10405574;28;20345;-61
2021/08/18 15:48:54;;;;;;;1.70;1.20;;;;;;;21.41;47.17;99797.59;10438407;28;20132;-62
2021/08/18 15:53:56;;;;;;;2.58;1.40;;;;;;;21.16;47.74;99786.03;10444929;28;20063;-62
2021/08/18 15:58:57;;;;;;;2.60;1.30;;;;;;;20.90;48.54;99785.28;10444225;28;20537;-62
2021/08/18 16:03:59;;;;;;;1.58;1.10;;;;;;;20.71;49.12;99778.41;10402663;28;20600;-62
2021/08/18 16:09:01;;;;;;;2.20;1.30;;;;;;;20.46;49.41;99784.53;10415677;28;20173;-62
2021/08/18 16:14:03;;;;;;;1.30;1.15;;;;;;;20.32;49.61;99781.63;10433712;28;20095;-62
2021/08/18 16:19:05;;;;;;;3.03;1.30;;;;;;;20.21;50.03;99788.06;10442586;28;20508;-62
2021/08/18 16:24:07;;;;;;;2.35;1.20;;;;;;;20.15;50.41;99780.72;10442307;28;20103;-62
2021/08/18 16:29:09;;;;;;;3.38;1.40;;;;;;;20.21;50.82;99780.09;10446418;28;20633;-63
2021/08/18 16:34:11;;;;;;;3.22;1.40;;;;;;;20.42;50.38;99775.22;10451130;28;20072;-62
2021/08/18 16:39:13;;;;;;;2.10;1.20;;;;;;;20.63;49.78;99770.38;10433308;28;20041;-62
2021/08/18 16:44:15;;;;;;;1.75;1.20;;;;;;;20.68;49.23;99772.56;10450331;28;20573;-63
2021/08/18 16:49:18;;;;;;;2.33;1.30;;;;;;;20.68;48.94;99768.06;10450334;28;20076;-62
2021/08/18 16:54:20;;;;;;;2.20;1.33;;;;;;;20.69;49.39;99763.59;10450790;28;20088;-63
2021/08/18 16:59:21;;;;;;;1.48;1.10;;;;;;;20.64;49.46;99772.03;10427520;28;20050;-62
2021/08/18 17:04:23;;;;;;;2.47;1.30;;;;;;;20.53;49.59;99768.81;10408847;28;20130;-63
2021/08/18 17:09:26;;;;;;;2.15;1.40;;;;;;;20.47;49.72;99758.81;10417551;28;20478;-63
2021/08/18 17:14:28;;;;;;;2.05;1.30;;;;;;;20.45;50.22;99764.28;10408575;28;20132;-63
2021/08/18 17:19:29;;;;;;;2.58;1.38;;;;;;;20.41;50.07;99762.94;10418387;28;20053;-62
2021/08/18 17:24:31;;;;;;;3.65;1.50;;;;;;;20.23;50.98;99756.88;10448450;28;20056;-62
2021/08/18 17:29:33;;;;;;;1.83;1.20;;;;;;;20.27;50.79;99761.69;10446403;28;20124;-62
2021/08/18 17:34:35;;;;;;;1.75;1.20;;;;;;;20.37;50.56;99761.59;10447278;28;20410;-63
2021/08/18 17:39:37;;;;;;;2.50;1.33;;;;;;;20.27;51.02;99760.88;10446469;28;20048;-62
2021/08/18 17:44:39;;;;;;;2.42;1.40;;;;;;;20.11;50.92;99763.44;10447469;28;20092;-63
2021/08/18 17:49:40;;;;;;;2.55;1.50;;;;;;;20.01;51.39;99768.81;10447220;28;20611;-62
2021/08/18 17:54:42;;;;;;;3.33;1.40;;;;;;;19.88;51.72;99770.22;10445834;28;20084;-62
2021/08/18 17:59:44;;;;;;;2.80;1.40;;;;;;;19.68;52.04;99771.38;10440522;28;20541;-63
2021/08/18 18:04:46;;;;;;;3.00;1.50;;;;;;;19.62;52.25;99769.34;10445280;28;20053;-62
2021/08/18 18:09:48;;;;;;;3.58;1.38;;;;;;;19.49;52.64;99769.72;10424149;28;20148;-62
2021/08/18 18:14:50;;;;;;;3.13;1.50;;;;;;;19.40;52.50;99776.75;10427366;28;20421;-62
2021/08/18 18:19:52;;;;;;;3.80;1.42;;;;;;;19.37;52.75;99758.50;10434526;28;20489;-62
2021/08/18 18:24:54;;;;;;;1.98;1.30;;;;;;;19.40;52.78;99766.16;10445546;28;20640;-63
2021/08/18 18:29:56;;;;;;;2.10;1.40;;;;;;;19.38;53.20;99765.47;10420618;28;20053;-63
2021/08/18 18:34:58;;;;;;;3.72;1.67;;;;;;;19.31;53.07;99764.41;10445585;28;20076;-62
2021/08/18 18:40:00;;;;;;;4.93;1.70;;;;;;;19.37;53.31;99766.47;10425274;28;20069;-63
2021/08/18 18:45:04;;;;;;;4.63;1.80;;;;;;;19.33;53.13;99773.06;10432364;28;20060;-63
2021/08/18 18:50:07;;;;;;;3.50;1.48;;;;;;;19.29;53.51;99766.38;10438305;28;20129;-62
2021/08/18 18:55:09;;;;;;;2.50;1.48;;;;;;;19.30;53.53;99770.69;10429062;28;20085;-62
2021/08/18 19:00:12;;;;;;;1.95;1.33;;;;;;;19.27;54.00;99767.50;10441553;28;20544;-62
2021/08/18 19:05:14;;;;;;;4.43;1.30;;;;;;;19.26;53.94;99766.66;10443451;28;20041;-63
2021/08/18 19:10:16;;;;;;;2.30;1.45;;;;;;;19.17;54.64;99767.59;10439498;28;20593;-63
2021/08/18 19:15:19;;;;;;;4.63;1.45;;;;;;;19.14;54.59;99770.53;10444310;28;20064;-63
2021/08/18 19:20:21;;;;;;;1.83;1.35;;;;;;;19.08;54.66;99776.44;10436261;28;20133;-63
2021/08/18 19:25:23;;;;;;;5.30;1.50;;;;;;;19.06;54.56;99774.91;10402572;28;20057;-63
2021/08/18 19:30:25;;;;;;;3.38;1.42;;;;;;;19.05;54.48;99774.09;10432373;28;20080;-63
2021/08/18 19:35:26;;;;;;;2.33;1.40;;;;;;;18.93;54.64;99775.22;10445014;28;20472;-62
2021/08/18 19:40:28;;;;;;;3.17;1.30;;;;;;;18.89;54.92;99768.56;10443940;28;20069;-63
2021/08/18 19:45:30;;;;;;;2.00;1.38;;;;;;;18.88;54.71;99766.91;10441110;28;20505;-63
2021/08/18 19:50:32;;;;;;;3.33;1.40;;;;;;;18.85;55.16;99772.47;10436869;28;20128;-63
2021/08/18 19:55:33;;;;;;;4.18;1.48;;;;;;;18.81;55.00;99765.81;10436606;28;20099;-63
2021/08/18 20:00:35;;;;;;;2.35;1.40;;;;;;;18.76;55.49;99768.09;10441783;28;20692;-63
2021/08/18 20:05:37;;;;;;;4.32;1.40;;;;;;;18.68;55.68;99770.63;10444375;28;20045;-63
2021/08/18 20:10:39;;;;;;;2.55;1.40;;;;;;;18.66;55.81;99764.66;10445066;28;20117;-63
2021/08/18 20:15:41;;;;;;;2.15;1.48;;;;;;;18.60;55.94;99767.88;10443783;28;20045;-64
2021/08/18 20:20:47;;;;;;;4.10;1.50;;;;;;;18.55;55.81;99763.03;10437964;28;20044;-63
2021/08/18 20:25:49;;;;;;;5.25;1.50;;;;;;;18.49;56.28;99766.25;10403030;28;20132;-63
2021/08/18 20:30:54;;;;;;;2.83;1.70;;;;;;;18.53;56.03;99764.13;10439400;28;20503;-62
2021/08/18 20:35:56;;;;;;;4.45;1.52;;;;;;;18.59;56.02;99766.19;10444679;28;20055;-62
2021/08/18 20:40:59;;;;;;;4.28;1.50;;;;;;;18.56;56.28;99772.63;10444586;28;20076;-62
2021/08/18 20:46:01;;;;;;;4.97;1.60;;;;;;;18.49;56.51;99778.66;10443893;28;20485;-62
2021/08/18 20:51:03;;;;;;;2.90;1.50;;;;;;;18.55;56.37;99778.06;10429593;28;20072;-62
2021/08/18 20:56:05;;;;;;;5.10;1.63;;;;;;;18.52;56.44;99778.38;10427484;28;20052;-61
2021/08/18 21:01:07;;;;;;;3.70;1.70;;;;;;;18.45;56.65;99782.56;10407805;28;20055;-62
2021/08/18 21:06:09;;;;;;;2.92;1.60;;;;;;;18.43;56.67;99781.88;10443975;28;20044;-62
2021/08/18 21:11:10;;;;;;;3.03;1.60;;;;;;;18.45;56.64;99778.13;10444892;28;20057;-62
2021/08/18 21:16:12;;;;;;;3.42;1.60;;;;;;;18.44;56.83;99779.09;10448397;28;20088;-62
2021/08/18 21:21:14;;;;;;;3.05;1.63;;;;;;;18.37;56.59;99783.31;10452589;28;20055;-62
2021/08/18 21:26:16;;;;;;;2.38;1.50;;;;;;;18.37;56.98;99777.16;10446672;28;20719;-62
2021/08/18 21:31:18;;;;;;;5.97;1.70;;;;;;;18.37;57.14;99783.31;10447376;28;20390;-59
2021/08/18 21:36:20;;;;;;;3.40;1.60;;;;;;;18.41;57.15;99773.25;10428702;28;20820;-58
2021/08/18 21:41:22;;;;;;;3.78;1.73;;;;;;;18.40;57.22;99772.41;10443322;28;20044;-58
2021/08/18 21:46:24;;;;;;;3.58;1.75;;;;;;;18.36;56.90;99772.88;10436657;28;20054;-59
2021/08/18 21:51:26;;;;;;;4.45;1.90;;;;;;;18.30;57.13;99770.78;10439364;28;20055;-59
2021/08/18 21:56:30;;;;;;;3.20;1.80;;;;;;;18.26;57.44;99759.63;10447334;28;20084;-59
2021/08/18 22:01:32;;;;;;;3.15;1.70;;;;;;;18.25;57.35;99773.88;10448233;28;20073;-59
2021/08/18 22:06:34;;;;;;;4.38;1.80;;;;;;;18.14;57.44;99773.16;10440429;28;20159;-58
2021/08/18 22:11:36;;;;;;;3.80;1.90;;;;;;;18.11;57.82;99778.75;10434574;28;20140;-60
2021/08/18 22:16:38;;;;;;;3.63;1.98;;;;;;;18.06;57.66;99775.69;10440997;28;20049;-59
2021/08/18 22:21:40;;;;;;;4.78;2.38;;;;;;;18.04;57.76;99777.63;10445596;28;20132;-59
2021/08/18 22:26:41;;;;;;;3.53;1.70;;;;;;;18.02;58.46;99780.44;10442931;28;20056;-59
2021/08/18 22:32:04;;;;;;;4.25;1.90;;;;;;;17.99;58.53;99779.88;10429197;28;20051;-60
2021/08/18 22:37:06;;;;;;;2.97;1.90;;;;;;;17.88;59.32;99790.63;10447557;28;20064;-59
2021/08/18 22:42:08;;;;;;;3.60;2.05;;;;;;;17.82;59.11;99786.72;10434177;28;20136;-59
2021/08/18 22:47:09;;;;;;;3.88;2.08;;;;;;;17.83;59.66;99799.81;10453284;28;20472;-59
2021/08/18 22:52:12;;;;;;;4.50;2.30;;;;;;;17.79;60.15;99806.34;10438052;28;20157;-60
2021/08/18 22:57:14;;;;;;;3.58;2.30;;;;;;;17.66;61.20;99807.63;10424546;28;20072;-60
2021/08/18 23:02:16;;;;;;;5.57;2.65;;;;;;;17.47;62.61;99807.59;10463500;28;20174;-60
2021/08/18 23:07:18;;;;;;;6.18;2.50;;;;;;;17.37;63.14;99799.69;10451683;28;20064;-60
2021/08/18 23:12:20;;;;;;;6.35;2.40;;;;;;;17.38;63.05;99798.72;10472605;28;20429;-59
2021/08/18 23:17:28;;;;;;;5.35;2.40;;;;;;;17.37;63.52;99797.03;10447411;28;20143;-59
2021/08/18 23:22:30;;;;;;;3.90;2.50;;;;;;;17.32;63.31;99788.66;10461301;28;20047;-59
2021/08/18 23:27:32;;;;;;;3.80;2.58;;;;;;;17.31;63.33;99794.06;10462159;28;20099;-59